Terminal Aerodrome Forecast
Issued by NWS Omaha/Valley, NE

Home | Current Version | Previous Version | Text Only | Print | Product List | Glossary On
Versions: 1 2 3 4 5 6 7 8 9 10 11 12 13 14 15 16 17 18 19 20 21 22 23 24 25 26 27 28 29 30 31 32 33 34 35 36 37
000
FTUS43 KOAX 260748 AAA
TAFOFK
TAF AMD
KOFK 260748Z 2608/2706 36014G22KT P6SM OVC005
      TEMPO 2608/2612 5SM BR
     FM261200 35015G20KT 4SM BR OVC007
     FM261800 36015G20KT P6SM OVC015
      TEMPO 2620/2624 2SM -SN BR
     FM270000 35012KT 1 1/2SM -SN BR OVC006=

USA.gov is the U.S. government's official web portal to all federal, state and local government web resources and services.